createdAt,value
2022-11-05T00:00:43.147Z,21.60
2022-11-05T00:03:30.187Z,25.80
2022-11-05T00:06:17.279Z,21.60
2022-11-05T00:09:03.782Z,26.50
2022-11-05T00:11:50.388Z,23.00
2022-11-05T00:14:37.198Z,23.10
2022-11-05T00:17:05.165Z,22.70
2022-11-05T00:19:33.341Z,24.60
2022-11-05T00:22:19.631Z,25.00
2022-11-05T00:25:05.726Z,20.20
2022-11-05T00:27:34.289Z,25.80
2022-11-05T00:30:07.143Z,22.80
2022-11-05T00:32:37.522Z,22.30
2022-11-05T00:35:07.705Z,22.90
2022-11-05T00:37:36.120Z,20.10
2022-11-05T00:40:05.215Z,22.40
2022-11-05T00:42:52.334Z,20.20
2022-11-05T00:45:20.512Z,24.00
2022-11-05T00:48:07.015Z,18.80
2022-11-05T00:50:34.877Z,20.80
2022-11-05T00:53:03.357Z,21.70
2022-11-05T00:55:40.049Z,17.40
2022-11-05T00:58:10.356Z,26.90
2022-11-05T01:00:41.391Z,21.80
2022-11-05T01:03:13.549Z,23.00
2022-11-05T01:05:44.953Z,17.80
2022-11-05T01:08:14.412Z,28.40
2022-11-05T01:10:51.516Z,21.30
2022-11-05T01:13:22.844Z,22.30
2022-11-05T01:15:51.736Z,18.30
2022-11-05T01:18:20.933Z,21.80
2022-11-05T01:20:49.867Z,18.30
2022-11-05T01:23:18.268Z,23.00
2022-11-05T01:25:46.421Z,23.40
2022-11-05T01:28:14.286Z,20.20
2022-11-05T01:30:42.312Z,25.10
2022-11-05T01:33:10.522Z,23.70
2022-11-05T01:35:39.581Z,21.40
2022-11-05T01:38:07.338Z,19.40
2022-11-05T01:40:37.360Z,20.30
2022-11-05T01:43:14.954Z,22.40
2022-11-05T01:45:44.623Z,21.40
2022-11-05T01:48:21.504Z,22.20
2022-11-05T01:51:03.846Z,24.80
2022-11-05T01:53:48.812Z,21.20
2022-11-05T01:56:26.239Z,20.60
2022-11-05T01:59:00.759Z,24.80
2022-11-05T02:01:29.657Z,22.50
2022-11-05T02:04:04.927Z,21.20
2022-11-05T02:06:37.273Z,20.30
2022-11-05T02:09:08.122Z,20.70
2022-11-05T02:14:04.718Z,21.10
2022-11-05T02:16:38.884Z,21.80
2022-11-05T02:19:09.789Z,21.20
2022-11-05T02:21:50.052Z,16.60
2022-11-05T02:24:26.795Z,23.80
2022-11-05T02:26:54.597Z,18.20
2022-11-05T02:29:37.787Z,22.60
2022-11-05T02:32:14.969Z,22.50
2022-11-05T02:34:51.987Z,18.80
2022-11-05T02:37:45.827Z,21.30
2022-11-05T02:40:17.076Z,23.70
2022-11-05T02:43:05.526Z,21.50
2022-11-05T02:45:52.245Z,18.10
2022-11-05T02:48:30.337Z,20.80
2022-11-05T02:51:16.401Z,24.20
2022-11-05T02:53:56.480Z,22.20
2022-11-05T02:56:30.639Z,23.80
2022-11-05T02:58:58.716Z,18.70
2022-11-05T03:01:26.617Z,19.80
2022-11-05T03:04:02.695Z,22.80
2022-11-05T03:06:36.408Z,24.50
2022-11-05T03:09:29.799Z,18.30
2022-11-05T03:12:19.557Z,20.90
2022-11-05T03:14:56.619Z,30.10
2022-11-05T03:17:52.443Z,27.50
2022-11-05T03:21:03.170Z,28.90
2022-11-05T03:23:34.050Z,24.50
2022-11-05T03:28:38.832Z,21.50
2022-11-05T03:31:08.476Z,19.20
2022-11-05T03:33:40.053Z,16.20
2022-11-05T03:36:30.242Z,20.30
2022-11-05T03:39:02.827Z,20.50
2022-11-05T03:41:34.681Z,19.20
2022-11-05T03:44:07.178Z,19.60
2022-11-05T03:46:48.031Z,23.00
2022-11-05T03:51:59.322Z,27.60
2022-11-05T03:54:27.702Z,27.90
2022-11-05T03:56:58.639Z,26.10
2022-11-05T03:59:28.096Z,24.70
2022-11-05T04:01:57.040Z,25.80
2022-11-05T04:04:25.411Z,24.60
2022-11-05T04:07:11.626Z,20.00
2022-11-05T04:09:57.849Z,26.30
2022-11-05T04:12:45.062Z,25.40
2022-11-05T04:15:12.976Z,27.30
2022-11-05T04:17:40.953Z,22.90
2022-11-05T04:20:28.382Z,27.40
2022-11-05T04:23:20.314Z,25.80
2022-11-05T04:25:48.237Z,30.20
2022-11-05T04:28:16.721Z,27.60
2022-11-05T04:30:45.043Z,25.50
2022-11-05T04:33:17.125Z,23.70
2022-11-05T04:35:48.393Z,23.80
2022-11-05T04:38:20.252Z,27.90
2022-11-05T04:40:48.381Z,22.60
2022-11-05T04:43:19.311Z,20.70
2022-11-05T04:45:47.802Z,19.00
2022-11-05T04:48:15.557Z,21.90
2022-11-05T04:50:43.432Z,28.30
2022-11-05T04:53:11.797Z,25.50
2022-11-05T04:55:43.761Z,20.00
2022-11-05T04:58:11.637Z,26.10
2022-11-05T05:00:39.655Z,26.20
2022-11-05T05:03:08.823Z,22.50
2022-11-05T05:05:37.023Z,21.30
2022-11-05T05:08:06.130Z,21.40
2022-11-05T05:10:34.055Z,28.80
2022-11-05T05:13:01.987Z,33.10
2022-11-05T05:15:30.288Z,28.80
2022-11-05T05:17:58.456Z,27.90
2022-11-05T05:20:45.151Z,26.90
2022-11-05T05:23:13.199Z,24.50
2022-11-05T05:25:41.723Z,24.70
2022-11-05T05:28:09.480Z,25.80
2022-11-05T05:30:37.359Z,21.20
2022-11-05T05:33:05.621Z,21.80
2022-11-05T05:35:33.453Z,28.20
2022-11-05T05:38:01.355Z,42.90
2022-11-05T05:40:29.109Z,43.10
2022-11-05T05:42:56.904Z,33.90
2022-11-05T05:45:24.952Z,31.30
2022-11-05T05:47:55.618Z,24.40
2022-11-05T05:50:23.763Z,30.60
2022-11-05T05:52:53.683Z,35.30
2022-11-05T05:55:21.540Z,28.40
2022-11-05T05:57:49.436Z,20.30
2022-11-05T06:00:17.599Z,24.50
2022-11-05T06:02:45.657Z,23.30
2022-11-05T06:05:13.928Z,23.60
2022-11-05T06:07:41.867Z,25.70
2022-11-05T06:10:10.173Z,25.30
2022-11-05T06:12:38.138Z,28.10
2022-11-05T06:15:06.257Z,31.60
2022-11-05T06:17:34.425Z,29.80
2022-11-05T06:20:02.314Z,26.90
2022-11-05T06:22:30.514Z,33.70
2022-11-05T06:24:58.389Z,36.20
2022-11-05T06:27:28.638Z,31.10
2022-11-05T06:29:56.589Z,32.60
2022-11-05T06:32:24.772Z,30.10
2022-11-05T06:34:52.928Z,27.00
2022-11-05T06:37:20.902Z,31.00
2022-11-05T06:39:48.884Z,29.70
2022-11-05T06:42:18.741Z,26.90
2022-11-05T06:44:47.344Z,26.60
2022-11-05T06:47:15.209Z,31.50
2022-11-05T06:49:43.036Z,25.90
2022-11-05T06:52:11.099Z,23.70
2022-11-05T06:54:39.728Z,25.30
2022-11-05T06:57:10.073Z,27.90
2022-11-05T06:59:41.430Z,27.60
2022-11-05T07:02:13.254Z,36.30
2022-11-05T07:04:55.050Z,26.40
2022-11-05T07:07:26.745Z,28.30
2022-11-05T07:09:54.714Z,25.70
2022-11-05T07:12:22.601Z,28.00
2022-11-05T07:14:50.457Z,26.70
2022-11-05T07:17:18.654Z,19.00
2022-11-05T07:19:46.535Z,20.70
2022-11-05T07:22:14.534Z,22.80
2022-11-05T07:24:42.844Z,22.50
2022-11-05T07:27:10.701Z,25.10
2022-11-05T07:29:38.473Z,21.10
2022-11-05T07:32:06.325Z,25.60
2022-11-05T07:34:34.213Z,26.60
2022-11-05T07:37:04.172Z,21.70
2022-11-05T07:39:32.142Z,26.10
2022-11-05T07:42:00.034Z,24.80
2022-11-05T07:44:32.787Z,21.50
2022-11-05T07:47:00.783Z,23.50
2022-11-05T07:49:28.614Z,30.10
2022-11-05T07:51:56.443Z,27.30
2022-11-05T07:54:26.592Z,35.60
2022-11-05T07:56:54.413Z,28.40
2022-11-05T07:59:22.182Z,25.10
2022-11-05T08:01:50.090Z,26.00
2022-11-05T08:04:18.262Z,24.60
2022-11-05T08:06:46.107Z,24.40
2022-11-05T08:09:13.947Z,25.90
2022-11-05T08:11:41.770Z,24.20
2022-11-05T08:14:09.631Z,41.10
2022-11-05T08:16:37.375Z,27.60
2022-11-05T08:19:05.115Z,38.60
2022-11-05T08:21:32.948Z,25.60
2022-11-05T08:24:00.816Z,30.30
2022-11-05T08:26:28.786Z,24.20
2022-11-05T08:28:56.813Z,30.30
2022-11-05T08:31:24.770Z,26.90
2022-11-05T08:33:57.124Z,30.20
2022-11-05T08:36:27.718Z,26.20
2022-11-05T08:38:55.785Z,26.90
2022-11-05T08:41:23.621Z,24.70
2022-11-05T08:43:51.424Z,25.10
2022-11-05T08:46:19.202Z,26.30
2022-11-05T08:48:47.043Z,24.80
2022-11-05T08:51:14.836Z,20.90
2022-11-05T08:53:42.836Z,30.50
2022-11-05T08:56:10.616Z,24.60
2022-11-05T08:58:38.513Z,28.00
2022-11-05T09:01:06.760Z,28.00
2022-11-05T09:03:34.728Z,40.30
2022-11-05T09:06:05.022Z,26.50
2022-11-05T09:08:33.139Z,52.80
2022-11-05T09:11:01.331Z,35.10
2022-11-05T09:13:29.442Z,30.50
2022-11-05T09:15:58.849Z,27.90
2022-11-05T09:18:26.885Z,27.40
2022-11-05T09:20:54.906Z,27.60
2022-11-05T09:23:22.932Z,20.80
2022-11-05T09:25:50.843Z,23.30
2022-11-05T09:28:21.465Z,21.90
2022-11-05T09:30:51.591Z,30.70
2022-11-05T09:33:22.215Z,22.60
2022-11-05T09:38:18.469Z,27.20
2022-11-05T09:40:59.576Z,37.30
2022-11-05T09:43:50.560Z,29.60
2022-11-05T09:46:25.642Z,31.20
2022-11-05T09:49:06.936Z,27.10
2022-11-05T09:51:36.840Z,24.50
2022-11-05T09:54:05.883Z,21.80
2022-11-05T09:56:37.370Z,22.60
2022-11-05T09:59:29.890Z,22.30
2022-11-05T10:02:18.393Z,26.30
2022-11-05T10:04:51.601Z,29.60
2022-11-05T10:07:24.905Z,22.80
2022-11-05T10:10:03.160Z,26.80
2022-11-05T10:13:11.823Z,38.00
2022-11-05T10:15:46.974Z,32.90
2022-11-05T10:18:33.359Z,40.00
2022-11-05T10:21:01.893Z,41.60
2022-11-05T10:23:30.239Z,27.10
2022-11-05T10:26:03.310Z,32.40
2022-11-05T10:28:33.742Z,44.00
2022-11-05T10:31:06.178Z,35.80
2022-11-05T10:33:45.097Z,36.30
2022-11-05T10:36:25.907Z,36.40
2022-11-05T10:41:50.511Z,21.60
2022-11-05T10:44:26.980Z,20.30
2022-11-05T10:47:07.026Z,23.20
2022-11-05T10:49:46.833Z,18.10
2022-11-05T10:52:31.750Z,21.20
2022-11-05T10:55:02.149Z,22.10
2022-11-05T10:57:41.970Z,23.30
2022-11-05T11:00:16.153Z,22.80
2022-11-05T11:02:51.365Z,19.90
2022-11-05T11:05:27.277Z,24.00
2022-11-05T11:08:00.672Z,25.40
2022-11-05T11:10:32.708Z,18.00
2022-11-05T11:13:00.576Z,22.40
2022-11-05T11:15:32.832Z,21.50
2022-11-05T11:18:24.116Z,17.20
2022-11-05T11:20:52.288Z,16.90
2022-11-05T11:23:20.217Z,20.80
2022-11-05T11:25:53.581Z,22.30
2022-11-05T11:28:29.759Z,18.00
2022-11-05T11:31:22.872Z,17.00
2022-11-05T11:33:57.688Z,18.40
2022-11-05T11:36:36.104Z,22.50
2022-11-05T11:39:06.927Z,19.30
2022-11-05T11:41:39.197Z,19.50
2022-11-05T11:44:18.322Z,20.90
2022-11-05T11:46:50.160Z,26.10
2022-11-05T11:49:39.652Z,19.10
2022-11-05T11:52:13.734Z,27.10
2022-11-05T11:54:42.517Z,23.50
2022-11-05T11:57:28.457Z,17.20
2022-11-05T12:00:14.627Z,21.10
2022-11-05T12:02:48.584Z,21.80
2022-11-05T12:05:36.307Z,20.90
2022-11-05T12:08:16.341Z,18.20
2022-11-05T12:10:56.377Z,18.30
2022-11-05T12:13:55.666Z,22.70
2022-11-05T12:16:51.603Z,19.80
2022-11-05T12:20:31.100Z,21.00
2022-11-05T12:23:26.425Z,25.80
2022-11-05T12:26:05.720Z,18.00
2022-11-05T12:29:18.834Z,22.70
2022-11-05T12:31:59.082Z,23.40
2022-11-05T12:34:52.023Z,21.80
2022-11-05T12:37:43.806Z,24.20
2022-11-05T12:40:14.584Z,21.90
2022-11-05T12:45:54.650Z,20.30
2022-11-05T12:48:37.041Z,22.20
2022-11-05T12:51:18.701Z,22.50
2022-11-05T12:53:58.859Z,19.90
2022-11-05T12:56:34.358Z,20.30
2022-11-05T12:59:31.678Z,21.70
2022-11-05T13:02:16.593Z,21.30
2022-11-05T13:04:49.443Z,21.00
2022-11-05T13:07:35.304Z,24.70
2022-11-05T13:10:19.599Z,21.30
2022-11-05T13:12:54.854Z,21.60
2022-11-05T13:15:29.544Z,27.70
2022-11-05T13:18:05.444Z,31.50
2022-11-05T13:20:39.808Z,29.70
2022-11-05T13:23:21.025Z,30.20
2022-11-05T13:25:55.760Z,26.00
2022-11-05T13:28:23.614Z,26.60
2022-11-05T13:31:01.635Z,25.30
2022-11-05T13:33:34.411Z,22.50
2022-11-05T13:36:24.017Z,21.50
2022-11-05T13:39:03.724Z,26.20
2022-11-05T13:41:37.675Z,21.80
2022-11-05T13:44:26.981Z,25.10
2022-11-05T13:47:13.906Z,26.60
2022-11-05T13:50:10.074Z,22.50
2022-11-05T13:52:40.904Z,27.90
2022-11-05T13:55:27.000Z,28.20
2022-11-05T13:58:14.320Z,25.70
2022-11-05T14:00:58.059Z,27.70
2022-11-05T14:03:26.302Z,28.40
2022-11-05T14:06:07.625Z,30.30
2022-11-05T14:08:46.358Z,33.90
2022-11-05T14:11:29.477Z,32.20
2022-11-05T14:14:02.067Z,32.10
2022-11-05T14:16:54.833Z,37.00
2022-11-05T14:19:32.341Z,30.70
2022-11-05T14:22:00.390Z,25.50
2022-11-05T14:24:43.120Z,26.70
2022-11-05T14:27:11.582Z,26.90
2022-11-05T14:29:49.206Z,27.20
2022-11-05T14:32:17.272Z,27.10
2022-11-05T14:34:57.348Z,32.20
2022-11-05T14:37:28.301Z,37.30
2022-11-05T14:39:57.509Z,31.90
2022-11-05T14:42:27.348Z,38.80
2022-11-05T14:45:04.643Z,34.00
2022-11-05T14:47:38.869Z,34.00
2022-11-05T14:50:37.674Z,31.40
2022-11-05T14:53:36.779Z,36.30
2022-11-05T14:56:06.457Z,27.80
2022-11-05T14:58:40.135Z,35.40
2022-11-05T15:01:30.091Z,36.70
2022-11-05T15:04:27.374Z,37.00
2022-11-05T15:07:04.606Z,43.50
2022-11-05T15:09:41.607Z,39.80
2022-11-05T15:12:31.541Z,48.30
2022-11-05T15:15:21.491Z,42.60
2022-11-05T15:18:06.586Z,42.90
2022-11-05T15:20:46.821Z,37.40
2022-11-05T15:23:19.100Z,41.10
2022-11-05T15:25:53.124Z,39.50
2022-11-05T15:28:50.945Z,76.30
2022-11-05T15:31:37.789Z,125.00
2022-11-05T15:34:29.958Z,116.80
2022-11-05T15:37:00.805Z,108.30
2022-11-05T15:42:01.797Z,71.70
2022-11-05T15:44:33.205Z,82.70
2022-11-05T15:47:12.160Z,75.90
2022-11-05T15:49:42.228Z,61.30
2022-11-05T15:52:15.913Z,49.70
2022-11-05T15:54:44.767Z,60.00
2022-11-05T15:57:28.009Z,48.70
2022-11-05T15:59:55.979Z,57.30
2022-11-05T16:02:29.841Z,60.60
2022-11-05T16:05:00.119Z,66.10
2022-11-05T16:07:28.969Z,63.60
2022-11-05T16:10:01.727Z,60.40
2022-11-05T16:12:36.927Z,81.90
2022-11-05T16:15:10.674Z,73.90
2022-11-05T16:17:54.289Z,70.30
2022-11-05T16:20:30.125Z,61.80
2022-11-05T16:23:01.434Z,57.00
2022-11-05T16:25:41.273Z,63.70
2022-11-05T16:28:30.185Z,62.80
2022-11-05T16:31:01.452Z,63.70
2022-11-05T16:33:49.041Z,61.20
2022-11-05T16:36:18.265Z,53.10
2022-11-05T16:38:46.443Z,60.50
2022-11-05T16:41:19.549Z,55.00
2022-11-05T16:43:51.389Z,68.80
2022-11-05T16:46:20.591Z,87.70
2022-11-05T16:48:48.869Z,109.50
2022-11-05T16:51:17.696Z,82.60
2022-11-05T16:53:48.196Z,75.30
2022-11-05T16:56:19.380Z,94.20
2022-11-05T16:58:48.979Z,93.10
2022-11-05T17:01:22.233Z,61.80
2022-11-05T17:03:52.383Z,70.70
2022-11-05T17:06:21.693Z,63.80
2022-11-05T17:08:49.600Z,65.30
2022-11-05T17:11:19.963Z,82.40
2022-11-05T17:13:48.254Z,102.90
2022-11-05T17:16:18.272Z,136.10
2022-11-05T17:18:46.098Z,149.80
2022-11-05T17:21:14.409Z,150.60
2022-11-05T17:23:42.384Z,158.20
2022-11-05T17:26:12.688Z,159.90
2022-11-05T17:28:40.982Z,155.00
2022-11-05T17:31:12.904Z,143.60
2022-11-05T17:33:41.178Z,158.50
2022-11-05T17:36:13.665Z,153.10
2022-11-05T17:38:42.375Z,150.40
2022-11-05T17:41:17.423Z,119.70
2022-11-05T17:43:46.131Z,91.30
2022-11-05T17:46:16.116Z,88.90
2022-11-05T17:48:44.866Z,84.50
2022-11-05T17:51:16.289Z,81.20
2022-11-05T17:53:46.464Z,85.80
2022-11-05T17:56:27.247Z,94.00
2022-11-05T17:59:01.337Z,92.00
2022-11-05T18:01:32.234Z,90.00
2022-11-05T18:04:07.295Z,94.30
2022-11-05T18:06:39.454Z,90.70
2022-11-05T18:09:09.159Z,113.10
2022-11-05T18:11:37.885Z,112.60
2022-11-05T18:14:06.094Z,127.40
2022-11-05T18:16:35.358Z,122.10
2022-11-05T18:19:04.168Z,116.90
2022-11-05T18:21:32.120Z,122.10
2022-11-05T18:24:03.631Z,108.60
2022-11-05T18:26:31.896Z,96.50
2022-11-05T18:29:01.414Z,99.10
2022-11-05T18:31:29.294Z,135.80
2022-11-05T18:33:59.308Z,124.40
2022-11-05T18:36:29.910Z,114.00
2022-11-05T18:38:59.564Z,97.00
2022-11-05T18:41:27.717Z,94.80
2022-11-05T18:44:01.065Z,93.30
2022-11-05T18:46:56.607Z,98.20
2022-11-05T18:49:18.709Z,99.90
2022-11-05T18:51:46.524Z,118.10
2022-11-05T18:54:14.508Z,144.00
2022-11-05T18:56:45.848Z,146.00
2022-11-05T19:02:07.911Z,109.60
2022-11-05T19:04:36.711Z,87.50
2022-11-05T19:07:06.013Z,80.70
2022-11-05T19:09:35.438Z,61.90
2022-11-05T19:12:05.454Z,57.70
2022-11-05T19:14:34.309Z,51.80
2022-11-05T19:17:03.279Z,52.70
2022-11-05T19:19:31.689Z,51.10
2022-11-05T19:21:59.854Z,45.90
2022-11-05T19:24:28.469Z,43.30
2022-11-05T19:26:56.701Z,47.10
2022-11-05T19:29:24.611Z,50.50
2022-11-05T19:31:52.406Z,45.10
2022-11-05T19:34:20.748Z,45.20
2022-11-05T19:36:48.709Z,47.80
2022-11-05T19:39:16.711Z,45.60
2022-11-05T19:41:44.662Z,45.00
2022-11-05T19:44:12.533Z,43.80
2022-11-05T19:46:41.550Z,43.20
2022-11-05T19:49:10.462Z,48.00
2022-11-05T19:51:38.368Z,42.70
2022-11-05T19:54:08.033Z,43.00
2022-11-05T19:56:37.033Z,44.50
2022-11-05T19:59:07.172Z,48.80
2022-11-05T20:01:35.623Z,47.00
2022-11-05T20:04:04.929Z,42.40
2022-11-05T20:06:38.963Z,47.10
2022-11-05T20:09:27.084Z,54.00
2022-11-05T20:11:58.684Z,50.50
2022-11-05T20:14:26.680Z,52.80
2022-11-05T20:16:54.805Z,48.10
2022-11-05T20:19:23.660Z,43.50
2022-11-05T20:21:52.175Z,48.50
2022-11-05T20:24:24.878Z,48.30
2022-11-05T20:26:55.088Z,48.60
2022-11-05T20:29:26.034Z,44.20
2022-11-05T20:31:58.010Z,43.20
2022-11-05T20:34:25.988Z,44.40
2022-11-05T20:36:53.799Z,44.80
2022-11-05T20:39:21.579Z,39.00
2022-11-05T20:41:49.389Z,42.90
2022-11-05T20:44:17.423Z,42.80
2022-11-05T20:46:45.489Z,37.50
2022-11-05T20:49:13.359Z,45.70
2022-11-05T20:51:41.641Z,42.50
2022-11-05T20:54:09.733Z,45.50
2022-11-05T20:56:37.750Z,41.80
2022-11-05T20:59:05.880Z,44.00
2022-11-05T21:01:34.457Z,41.60
2022-11-05T21:04:03.351Z,42.90
2022-11-05T21:06:32.366Z,40.30
2022-11-05T21:09:00.785Z,41.40
2022-11-05T21:11:28.817Z,44.10
2022-11-05T21:13:56.828Z,40.90
2022-11-05T21:16:24.716Z,42.80
2022-11-05T21:18:52.645Z,44.90
2022-11-05T21:21:20.964Z,43.30
2022-11-05T21:23:48.910Z,45.70
2022-11-05T21:26:18.066Z,39.00
2022-11-05T21:28:45.957Z,40.60
2022-11-05T21:31:14.125Z,44.10
2022-11-05T21:33:42.149Z,42.00
2022-11-05T21:36:12.814Z,46.20
2022-11-05T21:38:41.497Z,40.70
2022-11-05T21:41:11.861Z,49.40
2022-11-05T21:43:41.733Z,41.80
2022-11-05T21:46:12.181Z,41.50
2022-11-05T21:48:40.144Z,40.90
2022-11-05T21:51:29.311Z,42.60
2022-11-05T21:54:16.534Z,38.80
2022-11-05T21:57:08.196Z,37.00
2022-11-05T21:59:47.964Z,41.60
2022-11-05T22:02:22.003Z,40.30
2022-11-05T22:04:52.880Z,40.80
2022-11-05T22:09:49.973Z,38.90
2022-11-05T22:12:18.222Z,40.50
2022-11-05T22:14:46.519Z,32.50
2022-11-05T22:17:15.760Z,40.60
2022-11-05T22:19:43.910Z,33.50
2022-11-05T22:22:12.600Z,39.40
2022-11-05T22:24:40.860Z,33.30
2022-11-05T22:27:13.264Z,31.40
2022-11-05T22:29:41.417Z,28.60
2022-11-05T22:32:10.716Z,32.50
2022-11-05T22:34:38.894Z,31.00
2022-11-05T22:37:07.375Z,36.70
2022-11-05T22:39:35.219Z,32.90
2022-11-05T22:42:07.234Z,28.10
2022-11-05T22:44:36.552Z,34.10
2022-11-05T22:47:05.553Z,24.40
2022-11-05T22:49:33.584Z,27.60
2022-11-05T22:52:01.501Z,27.00
2022-11-05T22:54:29.475Z,27.00
2022-11-05T22:56:57.465Z,26.70
2022-11-05T22:59:25.570Z,26.30
2022-11-05T23:01:53.554Z,27.00
2022-11-05T23:04:21.600Z,30.50
2022-11-05T23:07:08.209Z,29.70
2022-11-05T23:09:54.812Z,28.00
2022-11-05T23:12:37.870Z,23.20
2022-11-05T23:15:07.921Z,30.00
2022-11-05T23:17:54.352Z,29.40
2022-11-05T23:20:41.733Z,22.60
2022-11-05T23:23:30.124Z,25.00
2022-11-05T23:25:59.536Z,24.10
2022-11-05T23:28:27.595Z,24.60
2022-11-05T23:31:14.509Z,24.20
2022-11-05T23:33:42.478Z,24.40
2022-11-05T23:36:31.742Z,20.30
2022-11-05T23:38:59.524Z,23.30
2022-11-05T23:41:45.692Z,23.90
2022-11-05T23:44:32.412Z,31.00
2022-11-05T23:47:18.926Z,25.00
2022-11-05T23:49:46.692Z,26.70
2022-11-05T23:52:14.750Z,23.30
2022-11-05T23:54:42.721Z,22.70
2022-11-05T23:57:10.553Z,22.30
2022-11-05T23:59:38.621Z,21.70
